createdAt,value
2017-10-22T00:00:01.259Z,13.6
2017-10-22T00:05:01.985Z,13.5
2017-10-22T00:10:01.894Z,13.5
2017-10-22T00:15:02.182Z,13.5
2017-10-22T00:20:01.319Z,13.4
2017-10-22T00:25:01.293Z,13.4
2017-10-22T00:30:02.038Z,13.4
2017-10-22T00:35:01.681Z,13.4
2017-10-22T00:40:01.745Z,13.3
2017-10-22T00:45:01.317Z,13.3
2017-10-22T00:50:01.837Z,13.2
2017-10-22T00:55:01.758Z,13.2
2017-10-22T01:00:01.752Z,13.2
2017-10-22T01:05:02.126Z,13.1
2017-10-22T01:10:01.860Z,13.1
2017-10-22T01:15:01.600Z,13
2017-10-22T01:20:01.556Z,13
2017-10-22T01:25:02.149Z,13
2017-10-22T01:30:01.923Z,12.9
2017-10-22T01:35:01.977Z,12.9
2017-10-22T01:40:02.656Z,12.8
2017-10-22T01:45:01.295Z,12.8
2017-10-22T01:50:01.316Z,12.8
2017-10-22T01:55:01.346Z,12.7
2017-10-22T02:00:02.629Z,12.6
2017-10-22T02:05:01.205Z,12.6
2017-10-22T02:10:02.083Z,12.6
2017-10-22T02:15:01.613Z,12.5
2017-10-22T02:20:02.151Z,12.5
2017-10-22T02:25:01.792Z,12.5
2017-10-22T02:30:01.574Z,12.5
2017-10-22T02:35:02.116Z,12.4
2017-10-22T02:40:02.437Z,12.4
2017-10-22T02:45:01.876Z,12.4
2017-10-22T02:50:01.434Z,12.4
2017-10-22T02:55:01.316Z,12.4
2017-10-22T03:00:01.942Z,12.3
2017-10-22T03:05:02.113Z,12.3
2017-10-22T03:10:01.277Z,12.3
2017-10-22T03:15:01.610Z,12.2
2017-10-22T03:20:01.286Z,12.2
2017-10-22T03:25:02.133Z,12.2
2017-10-22T03:30:01.215Z,12.1
2017-10-22T03:35:01.777Z,12.1
2017-10-22T03:40:01.767Z,12.1
2017-10-22T03:45:02.043Z,12.1
2017-10-22T03:50:02.080Z,12.1
2017-10-22T03:55:02.151Z,12
2017-10-22T04:00:01.407Z,12
2017-10-22T04:05:01.409Z,12
2017-10-22T04:10:01.560Z,12
2017-10-22T04:15:02.075Z,12
2017-10-22T04:20:01.993Z,12
2017-10-22T04:25:01.840Z,11.9
2017-10-22T04:30:01.551Z,11.9
2017-10-22T04:35:01.477Z,11.9
2017-10-22T04:40:01.730Z,11.9
2017-10-22T04:45:02.049Z,11.8
2017-10-22T04:50:01.330Z,11.8
2017-10-22T04:55:01.716Z,11.8
2017-10-22T05:00:02.316Z,11.8
2017-10-22T05:05:01.194Z,11.8
2017-10-22T05:10:01.193Z,11.8
2017-10-22T05:15:01.853Z,11.8
2017-10-22T05:20:01.938Z,11.8
2017-10-22T05:25:01.590Z,11.7
2017-10-22T05:30:01.682Z,11.7
2017-10-22T05:35:02.319Z,11.7
2017-10-22T05:40:01.194Z,11.7
2017-10-22T05:45:01.939Z,11.7
2017-10-22T05:50:01.844Z,11.6
2017-10-22T05:55:01.881Z,11.6
2017-10-22T06:00:01.832Z,11.6
2017-10-22T06:05:02.160Z,11.6
2017-10-22T06:10:01.540Z,11.6
2017-10-22T06:15:01.929Z,11.6
2017-10-22T06:20:01.567Z,11.6
2017-10-22T06:25:02.014Z,11.6
2017-10-22T06:30:02.313Z,11.5
2017-10-22T06:35:01.908Z,11.5
2017-10-22T06:40:01.854Z,11.6
2017-10-22T06:45:01.769Z,11.5
2017-10-22T06:50:02.181Z,11.5
2017-10-22T06:55:01.771Z,11.5
2017-10-22T07:00:01.800Z,11.4
2017-10-22T07:05:01.670Z,11.4
2017-10-22T07:10:01.655Z,11.4
2017-10-22T07:15:01.544Z,11.5
2017-10-22T07:20:01.357Z,11.6
2017-10-22T07:25:02.527Z,11.6
2017-10-22T07:30:01.456Z,11.6
2017-10-22T07:35:01.734Z,11.6
2017-10-22T07:40:01.871Z,11.6
2017-10-22T07:45:02.019Z,11.6
2017-10-22T07:50:01.986Z,11.7
2017-10-22T07:55:01.287Z,11.8
2017-10-22T08:00:01.754Z,11.9
2017-10-22T08:05:01.772Z,11.9
2017-10-22T08:10:01.936Z,12
2017-10-22T08:15:02.336Z,12.2
2017-10-22T08:20:01.970Z,12.2
2017-10-22T08:25:01.779Z,12.4
2017-10-22T08:30:01.762Z,12.5
2017-10-22T08:35:01.529Z,12.5
2017-10-22T08:40:01.487Z,12.5
2017-10-22T08:45:01.979Z,12.5
2017-10-22T08:50:02.138Z,13
2017-10-22T08:55:02.147Z,13
2017-10-22T09:00:01.309Z,13
2017-10-22T09:05:01.596Z,13
2017-10-22T09:10:02.647Z,13
2017-10-22T09:15:01.320Z,13.4
2017-10-22T09:20:01.946Z,13.6
2017-10-22T09:25:01.509Z,13.6
2017-10-22T09:30:01.667Z,13.7
2017-10-22T09:35:01.550Z,13.7
2017-10-22T09:40:02.082Z,13.7
2017-10-22T09:45:01.666Z,13.7
2017-10-22T09:50:02.121Z,13.7
2017-10-22T09:55:01.267Z,13.7
2017-10-22T10:00:01.883Z,13.7
2017-10-22T10:05:01.731Z,13.8
2017-10-22T10:10:01.768Z,13.8
2017-10-22T10:15:02.158Z,13.8
2017-10-22T10:20:01.913Z,13.8
2017-10-22T10:25:02.888Z,13.8
2017-10-22T10:30:01.261Z,13.8
2017-10-22T10:35:02.071Z,13.8
2017-10-22T10:40:01.179Z,13.8
2017-10-22T10:45:01.943Z,13.8
2017-10-22T10:50:02.056Z,13.8
2017-10-22T10:55:01.247Z,13.8
2017-10-22T11:00:02.594Z,13.8
2017-10-22T11:05:01.379Z,13.8
2017-10-22T11:10:02.166Z,13.8
2017-10-22T11:15:01.783Z,13.8
2017-10-22T11:20:02.250Z,13.8
2017-10-22T11:25:01.966Z,13.8
2017-10-22T11:30:01.910Z,13.8
2017-10-22T11:35:01.484Z,13.8
2017-10-22T11:40:02.444Z,13.8
2017-10-22T11:45:01.883Z,13.8
2017-10-22T11:50:02.105Z,13.8
2017-10-22T11:55:01.932Z,13.8
2017-10-22T12:00:02.269Z,13.8
2017-10-22T12:05:01.361Z,13.8
2017-10-22T12:10:01.442Z,13.8
2017-10-22T12:15:01.700Z,13.8
2017-10-22T12:20:02.346Z,13.8
2017-10-22T12:25:02.109Z,13.8
2017-10-22T12:30:01.513Z,13.9
2017-10-22T12:35:02.559Z,14
2017-10-22T12:40:01.385Z,13.9
2017-10-22T12:45:02.212Z,13.9
2017-10-22T12:50:01.500Z,13.8
2017-10-22T12:55:02.147Z,13.8
2017-10-22T13:00:01.473Z,13.8
2017-10-22T13:05:02.353Z,13.8
2017-10-22T13:10:01.948Z,13.4
2017-10-22T13:15:01.658Z,13.4
2017-10-22T13:20:01.699Z,13.4
2017-10-22T13:25:01.349Z,13.2
2017-10-22T13:30:02.517Z,13.2
2017-10-22T13:35:02.190Z,13.2
2017-10-22T13:40:01.561Z,13.1
2017-10-22T13:45:01.912Z,13.1
2017-10-22T13:50:01.983Z,13
2017-10-22T13:55:02.186Z,12.9
2017-10-22T14:00:01.670Z,13
2017-10-22T14:05:02.193Z,13
2017-10-22T14:10:01.935Z,12.8
2017-10-22T14:15:01.525Z,12.8
2017-10-22T14:20:01.728Z,12.8
2017-10-22T14:25:01.823Z,12.7
2017-10-22T14:30:01.395Z,12.7
2017-10-22T14:35:01.918Z,12.7
2017-10-22T14:40:02.202Z,12.8
2017-10-22T14:45:01.660Z,12.8
2017-10-22T14:50:02.148Z,12.8
2017-10-22T14:55:02.017Z,12.8
2017-10-22T15:00:02.086Z,12.8
2017-10-22T15:05:01.571Z,12.8
2017-10-22T15:10:01.851Z,12.8
2017-10-22T15:15:01.534Z,12.8
2017-10-22T15:20:02.172Z,12.6
2017-10-22T15:25:01.700Z,12.6
2017-10-22T15:30:02.020Z,12.6
2017-10-22T15:35:02.472Z,12.6
2017-10-22T15:40:01.779Z,12.6
2017-10-22T15:45:01.503Z,12.6
2017-10-22T15:50:01.755Z,12.7
2017-10-22T15:55:02.003Z,12.6
2017-10-22T16:00:02.120Z,12.6
2017-10-22T16:05:01.656Z,12.6
2017-10-22T16:10:02.749Z,12.6
2017-10-22T16:15:01.526Z,12.6
2017-10-22T16:20:01.548Z,12.6
2017-10-22T16:25:01.690Z,12.6
2017-10-22T16:30:02.306Z,12.6
2017-10-22T16:35:02.259Z,12.6
2017-10-22T16:40:02.477Z,12.6
2017-10-22T16:45:01.197Z,12.6
2017-10-22T16:50:01.667Z,12.6
2017-10-22T16:55:02.047Z,12.6
2017-10-22T17:00:01.780Z,12.5
2017-10-22T17:05:02.408Z,12.6
2017-10-22T17:10:02.201Z,12.6
2017-10-22T17:15:01.501Z,12.6
2017-10-22T17:20:01.655Z,12.6
2017-10-22T17:25:02.077Z,12.6
2017-10-22T17:30:02.319Z,12.6
2017-10-22T17:35:02.120Z,12.6
2017-10-22T17:40:01.603Z,12.6
2017-10-22T17:45:02.026Z,12.7
2017-10-22T17:50:01.596Z,12.7
2017-10-22T17:55:02.325Z,12.7
2017-10-22T18:00:02.048Z,12.7
2017-10-22T18:05:01.383Z,12.7
2017-10-22T18:10:01.513Z,12.7
2017-10-22T18:15:01.631Z,12.7
2017-10-22T18:20:01.897Z,12.6
2017-10-22T18:25:01.621Z,12.7
2017-10-22T18:30:01.932Z,12.7
2017-10-22T18:35:01.502Z,12.7
2017-10-22T18:40:01.653Z,12.7
2017-10-22T18:45:02.208Z,12.7
2017-10-22T18:50:02.082Z,12.7
2017-10-22T18:55:01.198Z,12.6
2017-10-22T19:00:01.381Z,12.6
2017-10-22T19:05:02.070Z,12.6
2017-10-22T19:10:01.646Z,12.6
2017-10-22T19:15:01.821Z,12.6
2017-10-22T19:20:02.804Z,12.7
2017-10-22T19:25:02.506Z,12.7
2017-10-22T19:30:01.532Z,12.7
2017-10-22T19:35:01.239Z,12.6
2017-10-22T19:40:01.410Z,12.6
2017-10-22T19:45:01.814Z,12.6
2017-10-22T19:50:01.869Z,12.6
2017-10-22T19:55:01.391Z,12.5
2017-10-22T20:00:01.888Z,12.5
2017-10-22T20:05:01.837Z,12.5
2017-10-22T20:10:01.724Z,12.5
2017-10-22T20:15:02.053Z,12.4
2017-10-22T20:20:02.032Z,12.4
2017-10-22T20:25:01.331Z,12.4
2017-10-22T20:30:02.464Z,12.4
2017-10-22T20:35:02.291Z,12.5
2017-10-22T20:40:01.441Z,12.5
2017-10-22T20:45:02.557Z,12.5
2017-10-22T20:50:01.659Z,12.5
2017-10-22T20:55:02.040Z,12.5
2017-10-22T21:00:01.273Z,12.5
2017-10-22T21:05:02.806Z,12.5
2017-10-22T21:10:02.472Z,12.5
2017-10-22T21:15:01.716Z,12.5
2017-10-22T21:20:01.211Z,12.4
2017-10-22T21:25:02.449Z,12.4
2017-10-22T21:30:01.690Z,12.4
2017-10-22T21:35:01.508Z,12.4
2017-10-22T21:40:01.320Z,12.4
2017-10-22T21:45:01.566Z,12.4
2017-10-22T21:50:01.326Z,12.4
2017-10-22T21:55:01.623Z,12.2
2017-10-22T22:00:02.632Z,12.2
2017-10-22T22:05:01.642Z,12.2
2017-10-22T22:10:02.496Z,12.2
2017-10-22T22:15:01.981Z,12.2
2017-10-22T22:20:01.597Z,12.2
2017-10-22T22:25:01.905Z,12.1
2017-10-22T22:30:01.900Z,12.1
2017-10-22T22:35:01.852Z,12.1
2017-10-22T22:40:02.029Z,12.1
2017-10-22T22:45:01.941Z,12.2
2017-10-22T22:50:02.243Z,12.2
2017-10-22T22:55:01.455Z,12.1
2017-10-22T23:00:01.694Z,12.2
2017-10-22T23:05:01.331Z,12.2
2017-10-22T23:10:01.644Z,12.1
2017-10-22T23:15:01.898Z,12.1
2017-10-22T23:20:01.706Z,12.1
2017-10-22T23:25:02.046Z,12.1
2017-10-22T23:30:01.938Z,12.1
2017-10-22T23:35:01.247Z,12.1
2017-10-22T23:40:02.116Z,12.1
2017-10-22T23:45:01.564Z,12.1
2017-10-22T23:50:01.626Z,12.1
2017-10-22T23:55:02.049Z,12.1
